createdAt,value
2022-09-12T00:00:25.253Z,77.94238281
2022-09-12T00:01:24.252Z,77.96191406
2022-09-12T00:03:21.477Z,78.0703125
2022-09-12T00:04:16.692Z,78.16601563
2022-09-12T00:05:16.600Z,78.25488281
2022-09-12T00:06:11.208Z,77.92480469
2022-09-12T00:07:14.284Z,78.24511719
2022-09-12T00:08:12.685Z,78.19824219
2022-09-12T00:09:16.951Z,78.14648438
2022-09-12T00:10:08.459Z,78.06738281
2022-09-12T00:11:13.840Z,77.99609375
2022-09-12T00:12:09.073Z,78.25976563
2022-09-12T00:13:52.917Z,77.87792969
2022-09-12T00:14:36.172Z,77.41210938
2022-09-12T00:15:39.061Z,77.42675781
2022-09-12T00:16:43.770Z,77.38964844
2022-09-12T00:17:40.080Z,77.59277344
2022-09-12T00:18:39.269Z,77.515625
2022-09-12T00:19:34.696Z,77.46582031
2022-09-12T00:20:34.086Z,77.71289063
2022-09-12T00:21:28.378Z,77.76171875
2022-09-12T00:22:30.679Z,78.19140625
2022-09-12T00:23:26.097Z,77.66992188
2022-09-12T00:24:26.678Z,77.9140625
2022-09-12T00:25:26.637Z,78.26269531
2022-09-12T00:26:25.985Z,78.07714844
2022-09-12T00:28:20.016Z,78.07519531
2022-09-12T00:29:16.322Z,78.01464844
2022-09-12T00:30:17.425Z,78.23925781
2022-09-12T00:31:11.835Z,78.17773438
2022-09-12T00:32:11.833Z,78.3359375
2022-09-12T00:34:14.914Z,78.27636719
2022-09-12T00:35:07.694Z,78.36621094
2022-09-12T00:36:09.052Z,78.11621094
2022-09-12T00:37:05.075Z,78.26171875
2022-09-12T00:39:08.283Z,78.03710938
2022-09-12T00:40:03.983Z,78.03515625
2022-09-12T00:41:03.124Z,78.25976563
2022-09-12T00:42:05.075Z,78.32617188
2022-09-12T00:43:09.381Z,78.22460938
2022-09-12T00:44:05.023Z,78.15625
2022-09-12T00:45:07.078Z,78.234375
2022-09-12T00:46:01.607Z,78.40039063
2022-09-12T00:47:01.789Z,78.26464844
2022-09-12T00:49:05.195Z,78.3203125
2022-09-12T00:49:57.743Z,78.49707031
2022-09-12T00:51:00.788Z,78.49902344
2022-09-12T00:52:00.423Z,78.45117188
2022-09-12T00:53:46.934Z,78.22460938
2022-09-12T00:54:26.281Z,77.83789063
2022-09-12T00:55:24.324Z,77.71386719
2022-09-12T00:56:21.871Z,77.41601563
2022-09-12T00:57:21.235Z,77.8125
2022-09-12T00:58:21.233Z,77.62597656
2022-09-12T00:59:22.289Z,77.84472656
2022-09-12T01:00:17.842Z,78.22460938
2022-09-12T01:01:27.325Z,78.17578125
2022-09-12T01:02:26.189Z,78.27734375
2022-09-12T01:03:21.290Z,78.140625
2022-09-12T01:04:28.556Z,78.21679688
2022-09-12T01:05:24.594Z,78.16796875
2022-09-12T01:06:22.804Z,78.22167969
2022-09-12T01:07:22.002Z,78.49609375
2022-09-12T01:08:17.448Z,78.48144531
2022-09-12T01:09:20.102Z,78.55566406
2022-09-12T01:10:15.345Z,78.85644531
2022-09-12T01:11:19.057Z,78.93164063
2022-09-12T01:12:13.251Z,78.93554688
2022-09-12T01:14:08.519Z,78.65625
2022-09-12T01:15:08.530Z,78.73242188
2022-09-12T01:16:07.502Z,78.2421875
2022-09-12T01:17:07.330Z,78.421875
2022-09-12T01:19:00.148Z,78.6015625
2022-09-12T01:20:03.513Z,78.40917969
2022-09-12T01:20:58.836Z,78.37402344
2022-09-12T01:22:01.031Z,78.46582031
2022-09-12T01:23:56.343Z,78.82519531
2022-09-12T01:24:50.804Z,79.0625
2022-09-12T01:25:51.891Z,78.99316406
2022-09-12T01:26:47.009Z,78.80957031
2022-09-12T01:27:45.957Z,79.03710938
2022-09-12T01:28:47.711Z,79.12304688
2022-09-12T01:29:46.712Z,79.234375
2022-09-12T01:30:42.226Z,79.22265625
2022-09-12T01:31:39.290Z,79.3359375
2022-09-12T01:33:34.000Z,79.34667969
2022-09-12T01:35:30.548Z,78.94335938
2022-09-12T01:36:05.140Z,78.65234375
2022-09-12T01:37:03.117Z,78.46386719
2022-09-12T01:38:04.251Z,78.36523438
2022-09-12T01:39:02.155Z,78.38476563
2022-09-12T01:40:01.152Z,78.48925781
2022-09-12T01:40:59.183Z,78.65625
2022-09-12T01:42:08.163Z,78.46582031
2022-09-12T01:44:06.363Z,78.95996094
2022-09-12T01:45:04.870Z,79.03417969
2022-09-12T01:46:04.954Z,79.5390625
2022-09-12T01:47:02.991Z,79.20800781
2022-09-12T01:48:03.724Z,79.25292969
2022-09-12T01:49:10.703Z,79.53613281
2022-09-12T01:50:10.748Z,79.44238281
2022-09-12T01:51:09.492Z,79.62304688
2022-09-12T01:52:08.160Z,79.58789063
2022-09-12T01:54:06.868Z,79.39550781
2022-09-12T01:55:09.064Z,79.14550781
2022-09-12T01:56:08.247Z,79.07910156
2022-09-12T01:57:06.441Z,78.8671875
2022-09-12T01:58:10.479Z,78.53027344
2022-09-12T01:59:08.473Z,78.56445313
2022-09-12T02:00:08.402Z,78.61914063
2022-09-12T02:01:06.846Z,78.28808594
2022-09-12T02:02:12.283Z,78.671875
2022-09-12T02:03:06.643Z,78.39160156
2022-09-12T02:04:05.460Z,78.4140625
2022-09-12T02:05:01.810Z,78.42480469
2022-09-12T02:06:04.268Z,78.60449219
2022-09-12T02:06:59.784Z,78.60644531
2022-09-12T02:08:54.833Z,78.47167969
2022-09-12T02:09:52.756Z,78.49316406
2022-09-12T02:10:58.381Z,78.45605469
2022-09-12T02:11:52.650Z,78.58984375
2022-09-12T02:12:55.191Z,78.72558594
2022-09-12T02:13:56.121Z,79.15039063
2022-09-12T02:14:48.002Z,78.98730469
2022-09-12T02:15:51.023Z,79.04003906
2022-09-12T02:16:44.881Z,79.18847656
2022-09-12T02:19:09.122Z,79.02929688
2022-09-12T02:19:57.537Z,79
2022-09-12T02:20:58.201Z,78.9375
2022-09-12T02:21:59.028Z,78.82128906
2022-09-12T02:22:58.998Z,79.18359375
2022-09-12T02:24:01.233Z,79.21289063
2022-09-12T02:25:03.780Z,79.36621094
2022-09-12T02:26:01.939Z,79.20605469
2022-09-12T02:27:02.435Z,79.05859375
2022-09-12T02:29:03.462Z,78.54980469
2022-09-12T02:30:01.802Z,78.59179688
2022-09-12T02:31:04.357Z,78.3984375
2022-09-12T02:31:57.620Z,78.63671875
2022-09-12T02:32:59.795Z,78.38378906
2022-09-12T02:33:56.163Z,78.359375
2022-09-12T02:35:00.150Z,77.88476563
2022-09-12T02:35:54.023Z,77.87011719
2022-09-12T02:36:51.126Z,78.01660156
2022-09-12T02:37:54.343Z,78.10058594
2022-09-12T02:38:51.812Z,78.24316406
2022-09-12T02:39:51.676Z,78.12890625
2022-09-12T02:40:46.704Z,78.13671875
2022-09-12T02:41:48.882Z,78.078125
2022-09-12T02:42:44.019Z,78.26367188
2022-09-12T02:43:44.600Z,78.25
2022-09-12T02:44:40.904Z,78.37207031
2022-09-12T02:45:47.774Z,78.21289063
2022-09-12T02:46:42.031Z,78.18847656
2022-09-12T02:48:41.711Z,77.89746094
2022-09-12T02:49:43.442Z,77.79589844
2022-09-12T02:50:36.584Z,78.10253906
2022-09-12T02:51:39.001Z,77.76367188
2022-09-12T02:53:36.146Z,77.37109375
2022-09-12T02:54:29.272Z,77.52441406
2022-09-12T02:55:34.971Z,77.62597656
2022-09-12T02:56:37.097Z,77.62207031
2022-09-12T02:57:29.762Z,77.73828125
2022-09-12T02:58:34.779Z,77.54394531
2022-09-12T02:59:29.114Z,77.80371094
2022-09-12T03:01:14.181Z,76.97558594
2022-09-12T03:01:59.994Z,76.94140625
2022-09-12T03:04:00.785Z,76.91015625
2022-09-12T03:04:56.146Z,76.78027344
2022-09-12T03:05:56.641Z,76.84179688
2022-09-12T03:06:56.812Z,77.08398438
2022-09-12T03:07:57.785Z,77.07226563
2022-09-12T03:08:52.429Z,77.07714844
2022-09-12T03:09:54.443Z,76.88085938
2022-09-12T03:10:49.653Z,77.29589844
2022-09-12T03:11:50.918Z,77.50878906
2022-09-12T03:12:46.063Z,77.48632813
2022-09-12T03:13:48.135Z,77.37011719
2022-09-12T03:14:42.264Z,77.43652344
2022-09-12T03:15:41.257Z,77.38769531
2022-09-12T03:16:35.882Z,77.69628906
2022-09-12T03:17:36.153Z,77.58300781
2022-09-12T03:18:36.474Z,77.47851563
2022-09-12T03:19:28.780Z,77.67675781
2022-09-12T03:20:33.863Z,77.81054688
2022-09-12T03:21:33.408Z,78.14648438
2022-09-12T03:23:28.000Z,78.20019531
2022-09-12T03:24:23.170Z,78.45703125
2022-09-12T03:25:34.097Z,78.59082031
2022-09-12T03:26:29.425Z,78.42773438
2022-09-12T03:28:33.390Z,78.66308594
2022-09-12T03:28:43.592Z,78.55957031
2022-09-12T03:29:36.309Z,78.80175781
2022-09-12T03:30:34.683Z,78.64355469
2022-09-12T03:31:34.636Z,78.70019531
2022-09-12T03:33:14.413Z,78.74511719
2022-09-12T03:33:41.697Z,78.93066406
2022-09-12T03:34:41.133Z,78.66308594
2022-09-12T03:35:40.935Z,78.74511719
2022-09-12T03:36:47.047Z,78.60644531
2022-09-12T03:38:45.116Z,79.11914063
2022-09-12T03:39:48.923Z,79.10351563
2022-09-12T03:40:44.531Z,79.13378906
2022-09-12T03:41:44.361Z,79.49414063
2022-09-12T03:42:40.622Z,79.28125
2022-09-12T03:43:41.305Z,79.37890625
2022-09-12T03:44:36.602Z,79.4453125
2022-09-12T03:45:45.099Z,79.50976563
2022-09-12T03:46:45.129Z,79.57617188
2022-09-12T03:47:43.650Z,79.47460938
2022-09-12T03:48:47.059Z,79.65136719
2022-09-12T03:49:42.098Z,79.83203125
2022-09-12T03:50:37.558Z,79.75292969
2022-09-12T03:51:39.740Z,79.75292969
2022-09-12T03:52:45.304Z,79.91601563
2022-09-12T03:53:45.063Z,79.59570313
2022-09-12T03:54:50.223Z,79.97558594
2022-09-12T03:55:52.991Z,79.94140625
2022-09-12T03:56:52.659Z,79.8984375
2022-09-12T03:58:50.479Z,80.15625
2022-09-12T03:59:52.392Z,79.94042969
2022-09-12T04:00:47.775Z,80.0546875
2022-09-12T04:01:43.217Z,80.13378906
2022-09-12T04:03:42.725Z,79.8515625
2022-09-12T04:04:42.187Z,80.109375
2022-09-12T04:06:28.350Z,79.80371094
2022-09-12T04:07:12.078Z,79.60839844
2022-09-12T04:09:19.358Z,79.56835938
2022-09-12T04:10:16.688Z,79.76953125
2022-09-12T04:11:20.904Z,79.61914063
2022-09-12T04:12:17.439Z,79.79882813
2022-09-12T04:14:32.500Z,79.95019531
2022-09-12T04:15:31.534Z,79.88867188
2022-09-12T04:16:34.556Z,80
2022-09-12T04:17:33.685Z,79.97851563
2022-09-12T04:18:38.739Z,80.08496094
2022-09-12T04:19:35.919Z,80.04980469
2022-09-12T04:20:37.753Z,80.12890625
2022-09-12T04:21:34.676Z,79.96777344
2022-09-12T04:23:42.648Z,79.96972656
2022-09-12T04:24:37.046Z,80.15136719
2022-09-12T04:25:43.283Z,79.94628906
2022-09-12T04:26:40.428Z,80.03710938
2022-09-12T04:28:40.045Z,79.9375
2022-09-12T04:29:44.379Z,79.93359375
2022-09-12T04:30:38.897Z,80.00195313
2022-09-12T04:31:42.981Z,79.90039063
2022-09-12T04:33:46.269Z,80.20019531
2022-09-12T04:34:44.401Z,80.11132813
2022-09-12T04:35:44.045Z,79.80175781
2022-09-12T04:36:44.080Z,80.08398438
2022-09-12T04:41:03.968Z,77.45703125
2022-09-12T04:41:32.883Z,75.66015625
2022-09-12T04:42:31.688Z,75.07910156
2022-09-12T04:43:31.496Z,74.73339844
2022-09-12T04:44:26.739Z,74.92089844
2022-09-12T04:45:29.075Z,74.81152344
2022-09-12T04:46:28.554Z,75.11914063
2022-09-12T04:48:36.133Z,76.17773438
2022-09-12T04:49:31.368Z,76.30371094
2022-09-12T04:50:33.714Z,76.35058594
2022-09-12T04:51:26.300Z,76.18457031
2022-09-12T04:52:30.909Z,76.5390625
2022-09-12T04:53:26.122Z,76.37597656
2022-09-12T04:54:25.011Z,76.234375
2022-09-12T04:55:22.059Z,76.48535156
2022-09-12T04:56:22.455Z,76.78710938
2022-09-12T04:57:18.750Z,76.91503906
2022-09-12T04:59:15.217Z,76.97265625
2022-09-12T05:00:19.422Z,76.69433594
2022-09-12T05:01:15.859Z,77.16699219
2022-09-12T05:02:19.798Z,77.42382813
2022-09-12T05:04:19.807Z,77.14941406
2022-09-12T05:05:13.259Z,77.04785156
2022-09-12T05:06:12.417Z,76.89648438
2022-09-12T05:07:08.742Z,76.89648438
2022-09-12T05:09:03.885Z,77.11914063
2022-09-12T05:10:06.317Z,77.14648438
2022-09-12T05:11:01.615Z,77.40429688
2022-09-12T05:12:04.621Z,77.30273438
2022-09-12T05:12:59.785Z,77.45019531
2022-09-12T05:14:06.027Z,77.42089844
2022-09-12T05:15:09.232Z,77.31152344
2022-09-12T05:16:09.471Z,77.45800781
2022-09-12T05:17:08.904Z,77.56738281
2022-09-12T05:19:07.228Z,77.38183594
2022-09-12T05:19:59.798Z,77.86425781
2022-09-12T05:21:03.561Z,77.98046875
2022-09-12T05:22:00.973Z,77.63867188
2022-09-12T05:23:03.466Z,77.7890625
2022-09-12T05:24:35.660Z,78.12792969
2022-09-12T05:25:16.870Z,77.96484375
2022-09-12T05:26:18.647Z,77.87597656
2022-09-12T05:27:23.671Z,78.32910156
2022-09-12T05:28:21.823Z,78.03417969
2022-09-12T05:29:18.255Z,78.19824219
2022-09-12T05:30:17.607Z,77.9375
2022-09-12T05:31:12.346Z,78.03417969
2022-09-12T05:32:12.569Z,78.47460938
2022-09-12T05:34:14.621Z,78.94824219
2022-09-12T05:35:09.750Z,79.21777344
2022-09-12T05:36:11.792Z,79.17285156
2022-09-12T05:37:05.867Z,79.00292969
2022-09-12T05:38:05.148Z,79.19238281
2022-09-12T05:39:00.501Z,78.79492188
2022-09-12T05:40:03.080Z,79.06835938
2022-09-12T05:41:01.358Z,78.68066406
2022-09-12T05:42:06.530Z,78.72558594
2022-09-12T05:44:01.700Z,79.35449219
2022-09-12T05:44:55.663Z,79.41113281
2022-09-12T05:45:53.917Z,79.36621094
2022-09-12T05:46:49.455Z,79.27734375
2022-09-12T05:47:52.004Z,79.40625
2022-09-12T05:48:44.878Z,79.77734375
2022-09-12T05:49:47.199Z,79.68847656
2022-09-12T05:50:40.660Z,79.91894531
2022-09-12T05:51:43.173Z,80.12207031
2022-09-12T05:52:35.698Z,79.9921875
2022-09-12T05:53:37.613Z,79.84375
2022-09-12T05:54:31.925Z,80.12890625
2022-09-12T05:55:30.310Z,80.02929688
2022-09-12T05:56:26.545Z,80.34667969
2022-09-12T05:58:22.701Z,80.31835938
2022-09-12T05:59:25.927Z,80.68261719
2022-09-12T06:00:20.214Z,80.52441406
2022-09-12T06:01:24.435Z,80.69726563
2022-09-12T06:02:17.333Z,80.62597656
2022-09-12T06:03:19.715Z,80.47167969
2022-09-12T06:04:13.937Z,81.01367188
2022-09-12T06:05:11.601Z,81.15234375
2022-09-12T06:06:11.910Z,81.32128906
2022-09-12T06:07:09.051Z,81.22167969
2022-09-12T06:08:11.371Z,81.34863281
2022-09-12T06:09:03.883Z,81.76660156
2022-09-12T06:10:04.754Z,81.80371094
2022-09-12T06:11:02.284Z,82.07617188
2022-09-12T06:11:59.506Z,81.67480469
2022-09-12T06:12:54.859Z,82.0078125
2022-09-12T06:13:54.955Z,82.0234375
2022-09-12T06:14:50.349Z,82.57714844
2022-09-12T06:16:38.779Z,82.4921875
2022-09-12T06:17:19.218Z,81.91699219
2022-09-12T06:19:15.953Z,82.44921875
2022-09-12T06:20:15.879Z,82.68652344
2022-09-12T06:21:11.422Z,82.74316406
2022-09-12T06:22:08.404Z,82.52539063
2022-09-12T06:24:02.171Z,83.14648438
2022-09-12T06:25:03.420Z,83.50976563
2022-09-12T06:25:58.789Z,83.58007813
2022-09-12T06:26:57.244Z,83.06152344
2022-09-12T06:28:38.897Z,83.47363281
2022-09-12T06:29:19.248Z,83.55664063
2022-09-12T06:30:17.309Z,83.48242188
2022-09-12T06:31:14.343Z,83.06933594
2022-09-12T06:32:15.050Z,83.05664063
2022-09-12T06:33:09.872Z,83.29492188
2022-09-12T06:34:12.879Z,83.56445313
2022-09-12T06:35:10.145Z,83.50976563
2022-09-12T06:36:08.943Z,83.71484375
2022-09-12T06:36:12.621Z,83.71484375
2022-09-12T06:37:07.164Z,83.44726563
2022-09-12T06:38:02.484Z,83.39746094
2022-09-12T06:39:04.105Z,83.45800781
2022-09-12T06:39:59.686Z,83.46875
2022-09-12T06:40:59.235Z,83.54785156
2022-09-12T06:41:54.504Z,83.96582031
2022-09-12T06:42:55.472Z,83.47363281
2022-09-12T06:43:50.201Z,84.0390625
2022-09-12T06:44:50.916Z,83.70117188
2022-09-12T06:45:46.476Z,84.02148438
2022-09-12T06:46:46.609Z,83.93457031
2022-09-12T06:48:42.063Z,84.203125
2022-09-12T06:49:40.778Z,84.21582031
2022-09-12T06:50:36.367Z,84.52441406
2022-09-12T06:51:33.569Z,84.58300781
2022-09-12T06:53:38.680Z,84.70117188
2022-09-12T06:54:29.062Z,84.52832031
2022-09-12T06:55:27.694Z,84.46972656
2022-09-12T06:56:25.513Z,84.27441406
2022-09-12T06:57:20.517Z,84.40234375
2022-09-12T06:58:23.017Z,84.33203125
2022-09-12T06:59:16.262Z,84.18457031
2022-09-12T07:00:18.711Z,84.09960938
2022-09-12T07:01:11.557Z,84.10253906
2022-09-12T07:02:13.898Z,83.89160156
2022-09-12T07:04:09.197Z,84.09375
2022-09-12T07:05:02.163Z,84.40234375
2022-09-12T07:06:04.604Z,84.01171875
2022-09-12T07:06:57.265Z,83.93652344
2022-09-12T07:08:52.897Z,84.27441406
2022-09-12T07:09:55.961Z,84.49414063
2022-09-12T07:10:55.985Z,84.21679688
2022-09-12T07:12:26.814Z,83.78613281
2022-09-12T07:16:19.676Z,81.64355469
2022-09-12T07:16:58.301Z,81.44042969
2022-09-12T07:17:56.045Z,81.76464844
2022-09-12T07:18:59.736Z,81.86914063
2022-09-12T07:19:56.083Z,82.19140625
2022-09-12T07:20:56.440Z,82.19335938
2022-09-12T07:21:58.556Z,82.43554688
2022-09-12T07:23:56.434Z,82.8828125
2022-09-12T07:24:52.677Z,83.04101563
2022-09-12T07:25:52.171Z,82.93261719
2022-09-12T07:26:47.399Z,83.39550781
2022-09-12T07:27:51.048Z,83.14648438
2022-09-12T07:27:51.376Z,83.14648438
2022-09-12T07:28:42.975Z,83.41796875
2022-09-12T07:29:42.981Z,83.41796875
2022-09-12T07:30:39.558Z,83.67089844
2022-09-12T07:31:39.746Z,83.83691406
2022-09-12T07:33:36.465Z,84.29101563
2022-09-12T07:34:32.855Z,84.34667969
2022-09-12T07:35:32.160Z,84.60742188
2022-09-12T07:36:29.540Z,84.59960938
2022-09-12T07:38:26.210Z,84.28613281
2022-09-12T07:39:27.749Z,84.18554688
2022-09-12T07:40:20.609Z,84.2421875
2022-09-12T07:41:23.354Z,84.24804688
2022-09-12T07:42:16.269Z,84.14941406
2022-09-12T07:43:19.381Z,84.09765625
2022-09-12T07:44:12.588Z,84.13183594
2022-09-12T07:45:14.763Z,83.8046875
2022-09-12T07:46:08.437Z,83.73046875
2022-09-12T07:47:10.834Z,83.76269531
2022-09-12T07:48:03.904Z,84.11914063
2022-09-12T07:49:08.226Z,83.86132813
2022-09-12T07:49:59.558Z,83.48925781
2022-09-12T07:51:00.372Z,83.28710938
2022-09-12T07:51:56.752Z,82.984375
2022-09-12T07:52:58.008Z,82.859375
2022-09-12T07:53:53.202Z,83.08789063
2022-09-12T07:54:55.885Z,83.0859375
2022-09-12T07:55:52.289Z,82.93261719
2022-09-12T07:56:54.692Z,83.05761719
2022-09-12T07:57:47.529Z,82.97167969
2022-09-12T07:58:50.722Z,82.8046875
2022-09-12T07:59:52.823Z,82.94238281
2022-09-12T07:59:53.156Z,82.94238281
2022-09-12T08:00:47.436Z,83.22363281
2022-09-12T08:01:48.405Z,84.2734375
2022-09-12T08:03:44.271Z,83.77148438
2022-09-12T08:04:45.133Z,83.19628906
2022-09-12T08:05:40.702Z,82.73339844
2022-09-12T08:06:38.882Z,82.37695313
2022-09-12T08:07:36.928Z,82.015625
2022-09-12T08:08:35.169Z,81.65332031
2022-09-12T08:09:33.026Z,81.75878906
2022-09-12T08:10:31.159Z,81.47753906
2022-09-12T08:11:29.328Z,81.2421875
2022-09-12T08:12:27.440Z,81.5390625
2022-09-12T08:16:18.433Z,80.38769531
2022-09-12T08:16:58.775Z,80.44140625
2022-09-12T08:18:57.106Z,80.52734375
2022-09-12T08:19:52.524Z,80.51367188
2022-09-12T08:20:52.988Z,80.33203125
2022-09-12T08:21:49.042Z,80.26074219
2022-09-12T08:23:46.418Z,80.44726563
2022-09-12T08:24:45.558Z,80.27832031
2022-09-12T08:25:41.384Z,80.35351563
2022-09-12T08:26:41.977Z,79.93261719
2022-09-12T08:27:38.942Z,80.22070313
2022-09-12T08:28:38.649Z,80.1328125
2022-09-12T08:29:35.728Z,80.22851563
2022-09-12T08:30:35.739Z,80.0078125
2022-09-12T08:31:31.892Z,79.78613281
2022-09-12T08:33:33.425Z,79.77050781
2022-09-12T08:34:29.953Z,79.79882813
2022-09-12T08:35:27.171Z,79.13769531
2022-09-12T08:36:27.150Z,79.24511719
2022-09-12T08:37:24.120Z,79.34082031
2022-09-12T08:38:27.076Z,79.32226563
2022-09-12T08:39:20.606Z,79.08984375
2022-09-12T08:40:21.679Z,79.015625
2022-09-12T08:41:18.273Z,79.11132813
2022-09-12T08:42:19.193Z,79.11132813
2022-09-12T08:44:18.733Z,78.796875
2022-09-12T08:45:12.899Z,78.71875
2022-09-12T08:46:13.415Z,78.28808594
2022-09-12T08:47:09.378Z,78.40332031
2022-09-12T08:48:10.213Z,78.20996094
2022-09-12T08:49:05.999Z,78.44042969
2022-09-12T08:50:06.786Z,78.37695313
2022-09-12T08:51:03.218Z,78.61816406
2022-09-12T08:52:04.424Z,78.46289063
2022-09-12T08:54:04.354Z,76.41601563
2022-09-12T08:54:57.933Z,75.47070313
2022-09-12T08:55:58.234Z,75.86328125
2022-09-12T08:56:54.178Z,74.86132813
2022-09-12T08:58:26.286Z,74.93066406
2022-09-12T08:59:25.514Z,74.05761719
2022-09-12T09:00:27.177Z,74.13671875
2022-09-12T09:02:01.507Z,73.81445313
2022-09-12T09:04:15.282Z,73.03125
2022-09-12T09:04:54.559Z,72.82910156
2022-09-12T09:05:52.288Z,72.61621094
2022-09-12T09:06:51.801Z,73.25585938
2022-09-12T09:07:46.481Z,73.59960938
2022-09-12T09:08:46.032Z,73.74707031
2022-09-12T09:09:40.592Z,74.27246094
2022-09-12T09:10:39.805Z,74.49902344
2022-09-12T09:11:34.560Z,74.71191406
2022-09-12T09:13:27.739Z,75.00585938
2022-09-12T09:14:28.908Z,75.19433594
2022-09-12T09:15:20.895Z,74.79296875
2022-09-12T09:16:22.868Z,74.94824219
2022-09-12T09:17:15.103Z,75.18847656
2022-09-12T09:18:11.669Z,74.96972656
2022-09-12T09:19:10.887Z,75.1015625
2022-09-12T09:20:05.162Z,75.04394531
2022-09-12T09:21:07.388Z,74.42480469
2022-09-12T09:21:59.230Z,74.10839844
2022-09-12T09:23:01.244Z,74.13085938
2022-09-12T09:23:53.211Z,74.50195313
2022-09-12T09:24:50.356Z,74.7890625
2022-09-12T09:25:49.539Z,74.26757813
2022-09-12T09:26:44.120Z,74.578125
2022-09-12T09:27:45.924Z,74.69140625
2022-09-12T09:28:39.053Z,74.87695313
2022-09-12T09:29:40.383Z,74.83691406
2022-09-12T09:30:32.942Z,74.79589844
2022-09-12T09:31:32.290Z,74.87402344
2022-09-12T09:32:27.822Z,75.15917969
2022-09-12T09:34:22.777Z,75.43359375
2022-09-12T09:35:19.768Z,74.25097656
2022-09-12T09:36:19.301Z,74.55175781
2022-09-12T09:37:14.225Z,74.60058594
2022-09-12T09:40:02.193Z,75.55859375
2022-09-12T09:40:43.803Z,75.0703125
2022-09-12T09:41:44.209Z,75.13476563
2022-09-12T09:43:45.227Z,72.20898438
2022-09-12T09:44:42.289Z,72.3046875
2022-09-12T09:45:44.565Z,72.26269531
2022-09-12T09:45:47.934Z,72.26269531
2022-09-12T09:46:44.172Z,71.74121094
2022-09-12T09:47:42.229Z,72.82617188
2022-09-12T09:48:43.227Z,72.80566406
2022-09-12T09:49:42.370Z,73.02734375
2022-09-12T09:50:40.438Z,73.07226563
2022-09-12T09:51:43.805Z,73.05175781
2022-09-12T09:52:40.846Z,72.40527344
2022-09-12T09:53:41.661Z,72.84375
2022-09-12T09:54:38.773Z,72.1640625
2022-09-12T09:55:39.396Z,72.16210938
2022-09-12T09:56:34.739Z,72.33105469
2022-09-12T09:57:38.897Z,73.34375
2022-09-12T09:58:35.670Z,72.34277344
2022-09-12T09:59:32.046Z,72.85058594
2022-09-12T10:00:33.337Z,72.03808594
2022-09-12T10:01:29.763Z,72.4609375
2022-09-12T10:02:31.387Z,72.50390625
2022-09-12T10:04:33.046Z,71.7109375
2022-09-12T10:05:27.526Z,70.12792969
2022-09-12T10:06:28.772Z,70.28027344
2022-09-12T10:07:25.134Z,70.73535156
2022-09-12T10:09:23.714Z,70.65917969
2022-09-12T10:10:27.733Z,70.46777344
2022-09-12T10:11:22.883Z,71.01464844
2022-09-12T10:12:24.423Z,70.53027344
2022-09-12T10:13:21.005Z,70.06445313
2022-09-12T10:14:22.631Z,69.14941406
2022-09-12T10:15:19.215Z,69.29980469
2022-09-12T10:16:20.831Z,69.23046875
2022-09-12T10:17:18.001Z,70.03417969
2022-09-12T10:20:17.523Z,69.30078125
2022-09-12T10:20:20.327Z,69.30078125
2022-09-12T10:20:22.374Z,69.30078125
2022-09-12T10:20:36.740Z,68.97949219
2022-09-12T10:21:38.015Z,68.46582031
2022-09-12T10:22:31.949Z,68.52636719
2022-09-12T10:24:31.157Z,69.24902344
2022-09-12T10:25:26.785Z,67.63085938
2022-09-12T10:26:27.510Z,67.52832031
2022-09-12T10:27:22.802Z,68.06445313
2022-09-12T10:28:22.225Z,67.42480469
2022-09-12T10:29:17.552Z,68.02148438
2022-09-12T10:30:17.250Z,67.68847656
2022-09-12T10:31:12.472Z,67.93945313
2022-09-12T10:32:12.064Z,68.01855469
2022-09-12T10:34:07.173Z,68.86621094
2022-09-12T10:35:02.320Z,69.14355469
2022-09-12T10:36:01.459Z,69.05273438
2022-09-12T10:36:56.936Z,68.31835938
2022-09-12T10:38:54.260Z,67.83496094
2022-09-12T10:39:51.633Z,67.06738281
2022-09-12T10:40:47.601Z,67.60839844
2022-09-12T10:41:46.938Z,67.3359375
2022-09-12T10:42:41.734Z,67.35839844
2022-09-12T10:43:42.725Z,65.8515625
2022-09-12T10:44:38.030Z,66.85058594
2022-09-12T10:45:36.919Z,66.22070313
2022-09-12T10:46:39.243Z,65.72558594
2022-09-12T10:47:31.502Z,66.02246094
2022-09-12T10:49:28.865Z,66.32714844
2022-09-12T10:50:23.871Z,66.57226563
2022-09-12T10:51:26.143Z,66.21582031
2022-09-12T10:52:18.670Z,66.64453125
2022-09-12T10:53:18.168Z,66.18554688
2022-09-12T10:54:13.551Z,67.02636719
2022-09-12T10:55:12.758Z,66.15820313
2022-09-12T10:56:08.246Z,64.5703125
2022-09-12T10:57:10.005Z,63.95117188
2022-09-12T11:01:32.082Z,62.64257813
2022-09-12T11:01:38.444Z,63.078125
2022-09-12T11:02:35.933Z,62.60644531
2022-09-12T11:04:30.751Z,63.91015625
2022-09-12T11:05:31.099Z,63.17871094
2022-09-12T11:06:26.488Z,63.02539063
2022-09-12T11:07:26.036Z,64.07714844
2022-09-12T11:08:20.980Z,64.10644531
2022-09-12T11:09:21.292Z,63.89550781
2022-09-12T11:10:16.650Z,64.14746094
2022-09-12T11:11:16.343Z,63.61328125
2022-09-12T11:12:12.656Z,63.62304688
2022-09-12T11:14:07.354Z,64.6640625
2022-09-12T11:15:08.976Z,64.36425781
2022-09-12T11:16:01.640Z,63.70605469
2022-09-12T11:17:00.488Z,63.984375
2022-09-12T11:17:56.201Z,64.44238281
2022-09-12T11:18:56.282Z,63.69335938
2022-09-12T11:19:50.717Z,63.73632813
2022-09-12T11:20:50.126Z,63.94335938
2022-09-12T11:21:44.876Z,64.39257813
2022-09-12T11:23:39.674Z,64.37792969
2022-09-12T11:24:38.855Z,64.25
2022-09-12T11:25:33.297Z,65.35351563
2022-09-12T11:26:32.691Z,64.48046875
2022-09-12T11:27:28.166Z,64.00878906
2022-09-12T11:29:22.932Z,62.77832031
2022-09-12T11:30:24.936Z,63.34179688
2022-09-12T11:31:19.769Z,63.55273438
2022-09-12T11:32:22.334Z,64.00097656
2022-09-12T11:33:16.783Z,63.75976563
2022-09-12T11:34:11.289Z,63.36035156
2022-09-12T11:35:17.295Z,62.90917969
2022-09-12T11:36:11.413Z,63.31542969
2022-09-12T11:37:07.456Z,64.44628906
2022-09-12T11:37:10.992Z,64.44628906
2022-09-12T11:39:04.625Z,62.51171875
2022-09-12T11:39:56.732Z,62.62597656
2022-09-12T11:40:58.668Z,62.0625
2022-09-12T11:41:51.535Z,62.64941406
2022-09-12T11:42:48.309Z,63.09765625
2022-09-12T11:43:48.084Z,62.75292969
2022-09-12T11:45:12.976Z,63.06054688
2022-09-12T11:45:53.378Z,63.36230469
2022-09-12T11:46:53.425Z,63.55175781
2022-09-12T11:48:49.059Z,63.41210938
2022-09-12T11:49:44.221Z,62.45703125
2022-09-12T11:50:45.107Z,62.22460938
2022-09-12T11:51:40.597Z,62.22363281
2022-09-12T11:52:43.216Z,63.03808594
2022-09-12T11:54:37.462Z,62.29101563